sensor_id;sensor_type;location;lat;lon;timestamp;temperature;humidity
15409;DHT22;7803;48.130;13.788;2022-12-29T05:34:51;22.10;72.90
15409;DHT22;7803;48.130;13.788;2022-12-29T05:37:53;22.10;72.80
15409;DHT22;7803;48.130;13.788;2022-12-29T05:41:10;22.00;72.70
15409;DHT22;7803;48.130;13.788;2022-12-29T05:44:17;22.10;72.80
15409;DHT22;7803;48.130;13.788;2022-12-29T05:47:20;22.10;72.80
15409;DHT22;7803;48.130;13.788;2022-12-29T05:50:37;22.10;72.80
15409;DHT22;7803;48.130;13.788;2022-12-29T05:53:40;22.10;72.70
15409;DHT22;7803;48.130;13.788;2022-12-29T05:56:55;22.10;72.70
15409;DHT22;7803;48.130;13.788;2022-12-29T06:00:07;22.10;72.70
15409;DHT22;7803;48.130;13.788;2022-12-29T06:03:23;22.10;72.50
15409;DHT22;7803;48.130;13.788;2022-12-29T06:06:45;22.20;72.60
15409;DHT22;7803;48.130;13.788;2022-12-29T06:09:47;22.20;72.60
15409;DHT22;7803;48.130;13.788;2022-12-29T06:12:52;22.20;72.60
15409;DHT22;7803;48.130;13.788;2022-12-29T06:15:56;22.20;72.60
15409;DHT22;7803;48.130;13.788;2022-12-29T06:19:12;22.20;72.60
15409;DHT22;7803;48.130;13.788;2022-12-29T06:22:34;22.20;72.80
15409;DHT22;7803;48.130;13.788;2022-12-29T06:25:51;22.20;72.80
15409;DHT22;7803;48.130;13.788;2022-12-29T06:28:53;22.20;74.70
15409;DHT22;7803;48.130;13.788;2022-12-29T06:32:10;22.20;76.90
15409;DHT22;7803;48.130;13.788;2022-12-29T06:35:12;22.40;76.60
15409;DHT22;7803;48.130;13.788;2022-12-29T06:38:16;22.50;74.50
15409;DHT22;7803;48.130;13.788;2022-12-29T06:41:18;22.60;73.50
15409;DHT22;7803;48.130;13.788;2022-12-29T06:44:21;22.70;72.70
15409;DHT22;7803;48.130;13.788;2022-12-29T06:47:24;22.70;72.50
15409;DHT22;7803;48.130;13.788;2022-12-29T06:50:26;22.70;72.50
15409;DHT22;7803;48.130;13.788;2022-12-29T06:53:34;22.70;72.60
15409;DHT22;7803;48.130;13.788;2022-12-29T06:56:45;22.60;72.50
15409;DHT22;7803;48.130;13.788;2022-12-29T07:00:02;22.60;72.70
15409;DHT22;7803;48.130;13.788;2022-12-29T07:03:05;22.70;72.70
15409;DHT22;7803;48.130;13.788;2022-12-29T07:06:21;22.60;72.70
15409;DHT22;7803;48.130;13.788;2022-12-29T07:09:34;22.60;72.80
15409;DHT22;7803;48.130;13.788;2022-12-29T07:12:51;22.60;72.90
15409;DHT22;7803;48.130;13.788;2022-12-29T07:15:53;22.60;73.20
15409;DHT22;7803;48.130;13.788;2022-12-29T07:18:55;22.60;73.20
15409;DHT22;7803;48.130;13.788;2022-12-29T07:21:57;22.60;73.00
15409;DHT22;7803;48.130;13.788;2022-12-29T07:25:01;22.60;72.30
15409;DHT22;7803;48.130;13.788;2022-12-29T07:28:04;22.60;70.60
15409;DHT22;7803;48.130;13.788;2022-12-29T07:31:22;22.60;70.00
15409;DHT22;7803;48.130;13.788;2022-12-29T07:34:38;22.50;67.40
15409;DHT22;7803;48.130;13.788;2022-12-29T07:37:46;22.40;61.30
15409;DHT22;7803;48.130;13.788;2022-12-29T08:11:05;22.30;64.90
15409;DHT22;7803;48.130;13.788;2022-12-29T08:14:07;22.30;65.20
15409;DHT22;7803;48.130;13.788;2022-12-29T08:17:24;22.40;65.70
15409;DHT22;7803;48.130;13.788;2022-12-29T08:20:40;22.30;65.90
15409;DHT22;7803;48.130;13.788;2022-12-29T08:23:56;22.30;66.20
15409;DHT22;7803;48.130;13.788;2022-12-29T08:31:24;22.30;67.00
15409;DHT22;7803;48.130;13.788;2022-12-29T08:34:26;22.40;67.40
15409;DHT22;7803;48.130;13.788;2022-12-29T08:37:42;22.40;67.60
15409;DHT22;7803;48.130;13.788;2022-12-29T08:41:00;22.40;67.70
15409;DHT22;7803;48.130;13.788;2022-12-29T08:44:16;22.40;68.90
15409;DHT22;7803;48.130;13.788;2022-12-29T09:21:38;22.50;69.30
15409;DHT22;7803;48.130;13.788;2022-12-29T09:24:42;22.50;69.30
15409;DHT22;7803;48.130;13.788;2022-12-29T09:27:47;22.50;69.40
15409;DHT22;7803;48.130;13.788;2022-12-29T09:31:03;22.50;69.40
15409;DHT22;7803;48.130;13.788;2022-12-29T09:34:20;22.50;69.60
15409;DHT22;7803;48.130;13.788;2022-12-29T09:56:25;22.50;70.00
15409;DHT22;7803;48.130;13.788;2022-12-29T09:59:38;22.50;70.10
15409;DHT22;7803;48.130;13.788;2022-12-29T10:03:03;22.50;70.00
15409;DHT22;7803;48.130;13.788;2022-12-29T10:06:25;22.60;70.10
15409;DHT22;7803;48.130;13.788;2022-12-29T10:09:36;22.50;70.20
15409;DHT22;7803;48.130;13.788;2022-12-29T10:16:37;22.50;70.30
15409;DHT22;7803;48.130;13.788;2022-12-29T10:19:55;22.60;70.40
15409;DHT22;7803;48.130;13.788;2022-12-29T10:23:29;22.50;70.30
15409;DHT22;7803;48.130;13.788;2022-12-29T10:26:50;22.50;70.40
15409;DHT22;7803;48.130;13.788;2022-12-29T10:30:11;22.60;70.60
15409;DHT22;7803;48.130;13.788;2022-12-29T10:48:25;22.70;70.70
15409;DHT22;7803;48.130;13.788;2022-12-29T10:51:31;22.60;70.60
15409;DHT22;7803;48.130;13.788;2022-12-29T10:54:51;22.70;70.80
15409;DHT22;7803;48.130;13.788;2022-12-29T10:58:12;22.60;70.80
15409;DHT22;7803;48.130;13.788;2022-12-29T11:01:37;22.70;70.80
15409;DHT22;7803;48.130;13.788;2022-12-29T11:24:21;22.70;71.10
15409;DHT22;7803;48.130;13.788;2022-12-29T11:27:38;22.70;71.10
15409;DHT22;7803;48.130;13.788;2022-12-29T11:30:43;22.70;71.20
15409;DHT22;7803;48.130;13.788;2022-12-29T11:34:06;22.70;71.20
15409;DHT22;7803;48.130;13.788;2022-12-29T11:37:27;22.70;71.30
15409;DHT22;7803;48.130;13.788;2022-12-29T11:48:21;22.70;71.50
15409;DHT22;7803;48.130;13.788;2022-12-29T11:51:25;22.60;71.50
15409;DHT22;7803;48.130;13.788;2022-12-29T11:54:30;22.70;71.50
15409;DHT22;7803;48.130;13.788;2022-12-29T11:57:50;22.70;71.50
15409;DHT22;7803;48.130;13.788;2022-12-29T12:01:10;22.70;71.60
15409;DHT22;7803;48.130;13.788;2022-12-29T12:38:45;22.70;71.80
15409;DHT22;7803;48.130;13.788;2022-12-29T12:42:18;22.70;71.90
15409;DHT22;7803;48.130;13.788;2022-12-29T12:45:40;22.70;72.80
15409;DHT22;7803;48.130;13.788;2022-12-29T12:49:14;22.70;72.00
15409;DHT22;7803;48.130;13.788;2022-12-29T12:52:45;22.70;72.00
15409;DHT22;7803;48.130;13.788;2022-12-29T13:03:48;22.70;72.00
15409;DHT22;7803;48.130;13.788;2022-12-29T13:07:02;22.70;72.00
15409;DHT22;7803;48.130;13.788;2022-12-29T13:10:33;22.70;72.10
15409;DHT22;7803;48.130;13.788;2022-12-29T13:14:06;22.70;72.00
15409;DHT22;7803;48.130;13.788;2022-12-29T13:17:32;22.70;73.00
15409;DHT22;7803;48.130;13.788;2022-12-29T13:32:11;22.60;72.20
15409;DHT22;7803;48.130;13.788;2022-12-29T13:39:05;22.60;72.30
15409;DHT22;7803;48.130;13.788;2022-12-29T13:42:24;22.60;72.40
15409;DHT22;7803;48.130;13.788;2022-12-29T13:45:42;22.60;72.40
15409;DHT22;7803;48.130;13.788;2022-12-29T15:04:47;22.70;72.50
15409;DHT22;7803;48.130;13.788;2022-12-29T15:07:52;22.70;72.50
15409;DHT22;7803;48.130;13.788;2022-12-29T15:11:14;22.60;72.50
15409;DHT22;7803;48.130;13.788;2022-12-29T15:14:32;22.60;72.50
15409;DHT22;7803;48.130;13.788;2022-12-29T15:17:49;22.70;72.50
15409;DHT22;7803;48.130;13.788;2022-12-29T16:06:34;22.70;72.70
15409;DHT22;7803;48.130;13.788;2022-12-29T16:09:42;22.70;72.60
15409;DHT22;7803;48.130;13.788;2022-12-29T16:13:04;22.70;72.60
15409;DHT22;7803;48.130;13.788;2022-12-29T16:16:25;22.70;72.60
15409;DHT22;7803;48.130;13.788;2022-12-29T16:19:47;22.60;72.60
15409;DHT22;7803;48.130;13.788;2022-12-29T18:12:53;22.80;72.50
15409;DHT22;7803;48.130;13.788;2022-12-29T18:15:56;22.70;72.40
15409;DHT22;7803;48.130;13.788;2022-12-29T18:18:59;22.80;72.50
15409;DHT22;7803;48.130;13.788;2022-12-29T18:22:15;22.70;72.40
15409;DHT22;7803;48.130;13.788;2022-12-29T18:25:39;22.70;72.40
15409;DHT22;7803;48.130;13.788;2022-12-29T18:40:14;22.80;72.50
15409;DHT22;7803;48.130;13.788;2022-12-29T18:43:18;22.80;72.50
15409;DHT22;7803;48.130;13.788;2022-12-29T18:46:34;22.80;72.50
15409;DHT22;7803;48.130;13.788;2022-12-29T18:49:56;22.80;72.50
15409;DHT22;7803;48.130;13.788;2022-12-29T18:53:14;22.80;72.50
15409;DHT22;7803;48.130;13.788;2022-12-29T20:41:21;22.80;72.90
15409;DHT22;7803;48.130;13.788;2022-12-29T20:44:37;22.90;73.10
15409;DHT22;7803;48.130;13.788;2022-12-29T20:47:57;22.90;70.90
15409;DHT22;7803;48.130;13.788;2022-12-29T20:50:59;22.90;69.20
15409;DHT22;7803;48.130;13.788;2022-12-29T20:54:02;22.90;68.80
15409;DHT22;7803;48.130;13.788;2022-12-29T20:57:07;22.90;69.90
15409;DHT22;7803;48.130;13.788;2022-12-29T21:00:11;22.90;70.60
15409;DHT22;7803;48.130;13.788;2022-12-29T21:03:13;22.90;71.00
15409;DHT22;7803;48.130;13.788;2022-12-29T21:06:18;22.90;71.10
15409;DHT22;7803;48.130;13.788;2022-12-29T21:09:23;22.90;71.40
15409;DHT22;7803;48.130;13.788;2022-12-29T21:12:27;22.90;71.50
15409;DHT22;7803;48.130;13.788;2022-12-29T21:15:31;22.90;71.60
15409;DHT22;7803;48.130;13.788;2022-12-29T21:18:33;22.90;71.60
15409;DHT22;7803;48.130;13.788;2022-12-29T21:21:36;22.90;71.70
15409;DHT22;7803;48.130;13.788;2022-12-29T21:24:38;22.90;71.70
15409;DHT22;7803;48.130;13.788;2022-12-29T21:27:43;22.90;71.70
15409;DHT22;7803;48.130;13.788;2022-12-29T21:30:49;22.90;71.80
15409;DHT22;7803;48.130;13.788;2022-12-29T21:33:52;22.90;71.80
15409;DHT22;7803;48.130;13.788;2022-12-29T21:36:54;22.90;72.00
15409;DHT22;7803;48.130;13.788;2022-12-29T21:40:00;22.90;72.00
15409;DHT22;7803;48.130;13.788;2022-12-29T21:43:04;22.80;72.00
15409;DHT22;7803;48.130;13.788;2022-12-29T21:46:06;22.90;72.10
15409;DHT22;7803;48.130;13.788;2022-12-29T21:49:10;22.80;72.10
15409;DHT22;7803;48.130;13.788;2022-12-29T21:52:12;22.80;72.20
15409;DHT22;7803;48.130;13.788;2022-12-29T21:55:16;22.80;72.20
15409;DHT22;7803;48.130;13.788;2022-12-29T21:58:19;22.80;72.30
15409;DHT22;7803;48.130;13.788;2022-12-29T22:01:39;22.80;72.40
15409;DHT22;7803;48.130;13.788;2022-12-29T22:04:58;22.80;72.40
15409;DHT22;7803;48.130;13.788;2022-12-29T22:08:17;22.70;72.40
15409;DHT22;7803;48.130;13.788;2022-12-29T22:11:37;22.70;73.30
15409;DHT22;7803;48.130;13.788;2022-12-29T22:14:57;22.70;72.50
15409;DHT22;7803;48.130;13.788;2022-12-29T22:18:00;22.70;72.60
15409;DHT22;7803;48.130;13.788;2022-12-29T22:21:03;22.70;72.60
15409;DHT22;7803;48.130;13.788;2022-12-29T22:24:06;22.70;72.60
